TimeBST,TemperatureF,Dew PointF,Humidity,Sea Level PressureIn,VisibilityMPH,Wind Direction,Wind SpeedMPH,Gust SpeedMPH,PrecipitationIn,Events,Conditions,WindDirDegrees,DateUTC
12:20 AM,46.4,41.0,81,30.12,-9999.0,West,9.2,-,N/A,,Clear,280,2012-09-18 23:20:00
12:50 AM,46,39,69,30.12,13,West,4.6,,,,,280,2012-09-18 23:50:00
12:50 AM,46.4,41.0,81,30.12,-9999.0,West,6.9,-,N/A,,Clear,280,2012-09-18 23:50:00
1:20 AM,46.4,41.0,81,30.12,6.2,West,8.1,-,N/A,,Unknown,270,2012-09-19 00:20:00
1:50 AM,44.6,39.2,81,30.12,6.2,West,6.9,-,N/A,,Unknown,270,2012-09-19 00:50:00
2:20 AM,44.6,41.0,87,30.12,6.2,West,10.4,-,N/A,,Unknown,270,2012-09-19 01:20:00
2:50 AM,44.6,41.0,87,30.12,-9999.0,West,9.2,-,N/A,,Clear,280,2012-09-19 01:50:00
3:20 AM,46.4,41.0,81,30.12,-9999.0,WNW,9.2,-,N/A,,Clear,290,2012-09-19 02:20:00
3:50 AM,47,41,71,30.14,14,WNW,8.1,,,,,290,2012-09-19 02:50:00
3:50 AM,46.4,41.0,81,30.12,-9999.0,WNW,9.2,-,N/A,,Clear,290,2012-09-19 02:50:00
4:20 AM,46.4,41.0,81,30.12,-9999.0,WNW,9.2,-,N/A,,Clear,290,2012-09-19 03:20:00
4:50 AM,46.4,41.0,81,30.15,-9999.0,West,8.1,-,N/A,,Clear,280,2012-09-19 03:50:00
5:20 AM,46.4,41.0,81,30.15,-9999.0,West,8.1,-,N/A,,Clear,280,2012-09-19 04:20:00
5:50 AM,44.6,39.2,81,30.15,-9999.0,West,10.4,-,N/A,,Clear,280,2012-09-19 04:50:00
6:20 AM,44.6,41.0,87,30.15,-9999.0,West,9.2,-,N/A,,Clear,280,2012-09-19 05:20:00
6:50 AM,44,40,80,30.17,13,West,10.4,,,,,260,2012-09-19 05:50:00
6:50 AM,42.8,39.2,87,30.15,-9999.0,West,10.4,-,N/A,,Clear,280,2012-09-19 05:50:00
7:20 AM,44.6,41.0,87,30.15,-9999.0,West,10.4,-,N/A,,Clear,270,2012-09-19 06:20:00
7:50 AM,46.4,41.0,81,30.18,-9999.0,West,10.4,-,N/A,,Clear,270,2012-09-19 06:50:00
8:20 AM,48.2,41.0,76,30.18,-9999.0,West,10.4,-,N/A,,Clear,270,2012-09-19 07:20:00
8:50 AM,50.0,42.8,76,30.18,-9999.0,West,11.5,-,N/A,,Clear,280,2012-09-19 07:50:00
9:20 AM,51.8,42.8,71,30.18,-9999.0,WNW,13.8,-,N/A,,Clear,290,2012-09-19 08:20:00
9:50 AM,53,42,57,30.20,16,West,10.4,,,,,270,2012-09-19 08:50:00
9:50 AM,53.6,42.8,67,30.18,-9999.0,WNW,10.4,-,N/A,,Clear,290,2012-09-19 08:50:00
10:20 AM,55.4,42.8,63,30.21,-9999.0,WNW,10.4,-,N/A,,Clear,290,2012-09-19 09:20:00
10:50 AM,57.2,41.0,55,30.21,6.2,WNW,10.4,-,N/A,,Partly Cloudy,300,2012-09-19 09:50:00
11:20 AM,59.0,41.0,51,30.21,6.2,West,11.5,-,N/A,,Partly Cloudy,280,2012-09-19 10:20:00
11:50 AM,59.0,39.2,48,30.21,6.2,WNW,12.7,-,N/A,,Partly Cloudy,300,2012-09-19 10:50:00
12:20 PM,60.8,39.2,45,30.21,6.2,WNW,15.0,-,N/A,,Scattered Clouds,290,2012-09-19 11:20:00
12:50 PM,61,38,31,30.21,19,West,12.7,,,,Partly Cloudy,280,2012-09-19 11:50:00
12:50 PM,60.8,37.4,42,30.21,6.2,WNW,12.7,-,N/A,,Scattered Clouds,290,2012-09-19 11:50:00
1:20 PM,60.8,37.4,42,30.21,6.2,West,12.7,-,N/A,,Partly Cloudy,280,2012-09-19 12:20:00
1:50 PM,59.0,37.4,45,30.21,6.2,West,13.8,-,N/A,,Partly Cloudy,270,2012-09-19 12:50:00
2:20 PM,59.0,35.6,42,30.18,-9999.0,West,11.5,-,N/A,,Clear,280,2012-09-19 13:20:00
2:50 PM,62.6,35.6,37,30.18,-9999.0,West,12.7,-,N/A,,Clear,280,2012-09-19 13:50:00
3:20 PM,62.6,35.6,37,30.18,-9999.0,West,11.5,-,N/A,,Clear,280,2012-09-19 14:20:00
3:50 PM,62.6,35.6,37,30.18,-9999.0,West,12.7,-,N/A,,Clear,270,2012-09-19 14:50:00
4:20 PM,62.6,33.8,34,30.18,-9999.0,West,16.1,-,N/A,,Clear,280,2012-09-19 15:20:00
4:50 PM,62.6,35.6,37,30.18,-9999.0,West,13.8,-,N/A,,Clear,260,2012-09-19 15:50:00
5:20 PM,60.8,35.6,39,30.18,-9999.0,West,13.8,-,N/A,,Clear,280,2012-09-19 16:20:00
5:50 PM,60.8,37.4,42,30.18,-9999.0,West,11.5,-,N/A,,Clear,280,2012-09-19 16:50:00
6:20 PM,59.0,39.2,48,30.18,-9999.0,WNW,12.7,-,N/A,,Clear,290,2012-09-19 17:20:00
6:50 PM,58,40,39,30.21,17,WNW,9.2,,,,Scattered Clouds,290,2012-09-19 17:50:00
6:50 PM,59.0,39.2,48,30.21,-9999.0,WNW,10.4,-,N/A,,Clear,290,2012-09-19 17:50:00
7:20 PM,55.4,41.0,58,30.21,-9999.0,West,9.2,-,N/A,,Clear,270,2012-09-19 18:20:00
7:50 PM,57.2,41.0,55,30.21,-9999.0,West,8.1,-,N/A,,Clear,280,2012-09-19 18:50:00
8:20 PM,55.4,41.0,58,30.21,-9999.0,West,6.9,-,N/A,,Clear,270,2012-09-19 19:20:00
8:50 PM,55.4,41.0,58,30.21,-9999.0,West,6.9,-,N/A,,Clear,270,2012-09-19 19:50:00
9:20 PM,55.4,41.0,58,30.21,-9999.0,West,5.8,-,N/A,,Clear,280,2012-09-19 20:20:00
9:50 PM,54,41,50,30.23,18,West,5.8,,,,Overcast,270,2012-09-19 20:50:00
9:50 PM,55.4,41.0,58,30.21,-9999.0,West,6.9,-,N/A,,Clear,270,2012-09-19 20:50:00
10:20 PM,53.6,41.0,62,30.21,-9999.0,West,5.8,-,N/A,,Clear,280,2012-09-19 21:20:00
10:50 PM,53.6,42.8,67,30.21,-9999.0,West,8.1,-,N/A,,Clear,270,2012-09-19 21:50:00
11:20 PM,51.8,41.0,67,30.21,-9999.0,West,8.1,-,N/A,,Clear,270,2012-09-19 22:20:00
11:50 PM,50.0,41.0,71,30.21,-9999.0,West,5.8,-,N/A,,Clear,270,2012-09-19 22:50:00